Latest Weather Observations for Rowley Shoals

IDW60801

Issued at 9:05 pm WST Friday 24 October 2014 (issued every 30 minutes, with the page automatically refreshed every 10 minutes)

About weather observations | Map of weather stations | Latest weather observations for WA | Other Formats
Station Details ID: 200713 Name: ROWLEY SHOALS Lat: -17.52 Lon: 118.95 Height: 0.0 m
Data from the previous 72 hours. | See also: Recent months for locations in Western Australia
Date/Time
WST
Temp
°C
App
Temp
°C
Dew
Point
Rel
Hum
%
Delta-T
°C
Wind Press
QNH
hPa
Press
MSL
hPa
Rain
since 9 am
mm
Dir
 
Spd
km/h
Gust
km/h
Spd
kts
Gust
kts
24/09:00pm - - - - - WNW 22 26 12 14 1012.8 - -
24/08:30pm - - - - - WNW 22 26 12 14 1012.6 - -
24/08:00pm - - - - - WNW 22 26 12 14 1012.5 1012.5 -
24/07:30pm - - - - - NW 22 24 12 13 1012.0 - -
24/07:00pm - - - - - NW 22 24 12 13 1011.8 1011.8 -
24/06:30pm - - - - - NW 19 20 10 11 1011.6 - -
24/06:00pm - - - - - NW 19 22 10 12 1011.2 1011.3 -
24/05:30pm - - - - - NW 19 20 10 11 1010.8 - -
24/05:00pm - - - - - NW 19 20 10 11 1010.5 1010.5 -
24/04:30pm - - - - - NW 19 20 10 11 1010.4 - -
24/04:00pm - - - - - NW 17 17 9 9 1010.5 1010.4 -
24/03:30pm - - - - - NW 15 17 8 9 1010.6 - -
24/03:00pm - - - - - NW 13 17 7 9 1010.6 1010.6 -
24/02:30pm - - - - - W 19 20 10 11 1010.3 - -
24/02:00pm - - - - - W 17 20 9 11 1010.6 1010.5 -
24/01:30pm - - - - - W 20 22 11 12 1010.8 - -
24/01:00pm - - - - - W 22 24 12 13 1010.9 1010.8 -
24/12:30pm - - - - - W 22 26 12 14 1011.2 - -
24/12:00pm - - - - - WNW 22 26 12 14 1011.5 1011.4 -
24/11:30am - - - - - WNW 22 26 12 14 1011.7 - -
24/11:00am - - - - - WNW 19 20 10 11 1011.8 1011.8 -
24/10:30am - - - - - WNW 19 20 10 11 1012.0 - -
24/10:00am - - - - - WNW 20 22 11 12 1012.0 1012.0 -
24/09:30am - - - - - WNW 20 22 11 12 1012.1 - -
24/09:00am - - - - - W 20 26 11 14 1012.0 1012.1 -
24/08:30am - - - - - W 22 24 12 13 1011.9 - -
24/08:00am - - - - - W 20 22 11 12 1012.1 1012.1 -
24/07:30am - - - - - WNW 15 17 8 9 1012.1 - -
24/07:00am - - - - - WNW 15 15 8 8 1011.8 1011.7 -
24/06:30am - - - - - W 17 19 9 10 1011.4 - -
24/06:00am - - - - - W 15 17 8 9 1011.1 1011.2 -
24/05:30am - - - - - W 13 15 7 8 1011.1 - -
24/05:00am - - - - - W 11 13 6 7 1011.0 1010.9 -
24/04:30am - - - - - WNW 9 13 5 7 1010.9 - -
24/04:00am - - - - - WNW 11 13 6 7 1010.7 1010.7 -
24/03:30am - - - - - W 20 22 11 12 1009.9 - -
24/03:00am - - - - - W 17 19 9 10 1010.1 1010.1 -
24/02:30am - - - - - W 15 17 8 9 1010.4 - -
24/02:00am - - - - - W 15 19 8 10 1010.4 1010.3 -
24/01:30am - - - - - W 11 13 6 7 1011.1 - -
24/01:00am - - - - - W 13 13 7 7 1011.2 1011.0 -
24/12:30am - - - - - W 9 11 5 6 1011.5 - -
24/12:00am - - - - - W 11 13 6 7 1011.5 1011.5 -
 
Date/Time
WST
Temp
°C
App
Temp
°C
Dew
Point
Rel
Hum
%
Delta-T
°C
Wind Press
QNH
hPa
Press
MSL
hPa
Rain
since 9 am
mm
Dir
 
Spd
km/h
Gust
km/h
Spd
kts
Gust
kts
23/11:30pm - - - - - W 9 11 5 6 1011.7 - -
23/11:00pm - - - - - W 11 15 6 8 1011.9 1011.8 -
23/10:30pm - - - - - W 15 17 8 9 1011.9 - -
23/10:00pm - - - - - W 17 19 9 10 1011.9 1011.9 -
23/09:30pm - - - - - W 13 15 7 8 1011.9 - -
23/09:00pm - - - - - W 13 15 7 8 1011.8 1011.7 -
23/08:30pm - - - - - W 13 15 7 8 1011.5 - -
23/08:00pm - - - - - W 15 15 8 8 1011.3 1011.3 -
23/07:30pm - - - - - W 15 17 8 9 1011.1 - -
23/07:00pm - - - - - W 15 17 8 9 1010.6 1010.7 -
23/06:30pm - - - - - W 15 17 8 9 1010.4 - -
23/06:00pm - - - - - W 17 17 9 9 1010.0 1010.1 -
23/05:30pm - - - - - W 17 19 9 10 1009.7 - -
23/05:00pm - - - - - W 15 17 8 9 1009.7 1009.7 -
23/04:30pm - - - - - WSW 15 17 8 9 1009.4 - -
23/04:00pm - - - - - WSW 17 20 9 11 1009.3 1009.3 -
23/03:30pm - - - - - WSW 22 24 12 13 1009.4 - -
23/03:00pm - - - - - W 22 24 12 13 1009.4 1009.3 -
23/02:30pm - - - - - W 19 20 10 11 1009.5 - -
23/02:00pm - - - - - W 22 24 12 13 1009.7 1009.7 -
23/01:30pm - - - - - W 20 24 11 13 1009.8 - -
23/01:00pm - - - - - W 17 19 9 10 1010.3 1010.2 -
23/12:30pm - - - - - WNW 17 19 9 10 1010.8 - -
23/12:00pm - - - - - WNW 15 15 8 8 1011.1 1011.0 -
23/11:30am - - - - - WNW 13 15 7 8 1011.5 - -
23/11:00am - - - - - W 13 15 7 8 1011.7 1011.6 -
23/10:30am - - - - - WNW 13 15 7 8 1011.7 - -
23/10:00am - - - - - WNW 11 15 6 8 1011.6 1011.6 -
23/09:30am - - - - - W 15 17 8 9 1011.4 - -
23/09:00am - - - - - W 17 - 9 - - 1011.5 -
23/08:30am - - - - - W 19 22 10 12 1011.3 - -
23/08:00am - - - - - WSW 19 26 10 14 1011.2 1011.3 -
23/07:30am - - - - - W 20 26 11 14 1011.0 - -
23/07:00am - - - - - W 19 24 10 13 1010.8 1010.9 -
23/06:30am - - - - - W 20 24 11 13 1010.5 - -
23/06:00am - - - - - W 20 24 11 13 1010.3 1010.4 -
23/05:30am - - - - - W 19 24 10 13 1010.4 - -
23/05:00am - - - - - W 20 24 11 13 1010.4 1010.4 -
23/04:30am - - - - - W 22 24 12 13 1009.9 - -
23/04:00am - - - - - W 20 24 11 13 1009.7 1009.8 -
23/03:30am - - - - - W 24 28 13 15 1009.5 - -
23/03:00am - - - - - W 15 15 8 8 1010.1 1010.0 -
23/02:30am - - - - - W 11 13 6 7 1010.3 - -
23/02:00am - - - - - WNW 9 9 5 5 1010.8 1010.7 -
23/01:30am - - - - - W 6 7 3 4 1011.1 - -
23/01:00am - - - - - W 7 9 4 5 1011.4 1011.4 -
23/12:30am - - - - - WSW 13 15 7 8 1011.5 - -
23/12:00am - - - - - WSW 17 19 9 10 1011.5 1011.5 -
 
Date/Time
WST
Temp
°C
App
Temp
°C
Dew
Point
Rel
Hum
%
Delta-T
°C
Wind Press
QNH
hPa
Press
MSL
hPa
Rain
since 9 am
mm
Dir
 
Spd
km/h
Gust
km/h
Spd
kts
Gust
kts
22/11:30pm - - - - - WSW 19 20 10 11 1011.6 - -
22/11:00pm - - - - - WSW 19 26 10 14 1011.7 1011.7 -
22/10:30pm - - - - - WSW 26 32 14 17 1011.6 - -
22/10:00pm - - - - - WSW 28 32 15 17 1011.8 1011.8 -
22/09:30pm - - - - - WSW 26 32 14 17 1011.7 - -
22/09:00pm - - - - - W 26 30 14 16 1011.8 1011.8 -
22/08:30pm - - - - - W 26 30 14 16 1011.8 - -
22/08:00pm - - - - - W 26 32 14 17 1011.7 1011.7 -
22/07:30pm - - - - - W 30 35 16 19 1011.6 - -
22/07:00pm - - - - - W 26 30 14 16 1011.3 1011.3 -
22/06:30pm - - - - - W 26 30 14 16 1011.0 - -
22/06:00pm - - - - - W 24 28 13 15 1010.5 1010.6 -
22/05:30pm - - - - - WSW 26 28 14 15 1010.4 - -
22/05:00pm - - - - - WSW 24 26 13 14 1010.2 1010.2 -
22/04:30pm - - - - - WSW 24 26 13 14 1010.0 - -
22/04:00pm - - - - - SW 22 26 12 14 1010.0 1010.1 -
22/03:30pm - - - - - SW 22 26 12 14 1010.3 - -
22/03:00pm - - - - - SW 24 28 13 15 1010.4 1010.4 -
22/02:30pm - - - - - SW 26 30 14 16 1010.4 - -
22/02:00pm - - - - - SW 26 32 14 17 1010.6 1010.7 -
22/01:30pm - - - - - SW 28 32 15 17 1010.9 - -
22/01:00pm - - - - - SW 28 28 15 15 1011.4 1011.2 -
22/12:30pm - - - - - SW 24 28 13 15 1012.1 - -
22/12:00pm - - - - - SW 22 24 12 13 1012.8 1012.5 -
22/11:30am - - - - - SSW 22 28 12 15 1012.8 - -
22/11:00am - - - - - SSW 26 28 14 15 1012.8 1012.8 -
22/10:30am - - - - - SSW 24 28 13 15 1013.0 - -
22/10:00am - - - - - SSW 24 28 13 15 1013.1 1013.0 -
22/09:30am - - - - - SSW 22 26 12 14 1013.3 - -
22/09:00am - - - - - SSW 24 30 13 16 1013.1 1013.2 -
22/08:30am - - - - - SSW 24 28 13 15 1013.1 - -
22/08:00am - - - - - SSW 22 24 12 13 1013.2 1013.0 -
22/07:30am - - - - - SSW 20 24 11 13 1013.2 - -
22/07:00am - - - - - SSW 20 26 11 14 1012.9 1012.8 -
22/06:30am - - - - - SW 26 32 14 17 1012.1 - -
22/06:00am - - - - - SW 33 43 18 23 1011.3 1011.6 -
22/05:30am - - - - - SW 35 39 19 21 1010.9 - -
22/05:00am - - - - - SW 32 37 17 20 1011.1 1011.0 -
22/04:30am - - - - - SW 30 33 16 18 1011.0 - -
22/04:00am - - - - - SW 24 28 13 15 1011.3 1011.2 -
22/03:30am - - - - - SW 30 35 16 19 1010.9 - -
22/03:00am - - - - - SW 30 33 16 18 1010.8 1010.8 -
22/02:30am - - - - - SW 30 35 16 19 1010.8 - -
22/02:00am - - - - - SW 32 39 17 21 1010.8 1010.8 -
22/01:30am - - - - - SW 32 37 17 20 1011.0 - -
22/01:00am - - - - - SW 33 35 18 19 1011.2 1011.1 -
22/12:30am - - - - - SW 32 37 17 20 1011.4 - -
22/12:00am - - - - - SW 32 41 17 22 1011.7 1011.7 -
 
Date/Time
WST
Temp
°C
App
Temp
°C
Dew
Point
Rel
Hum
%
Delta-T
°C
Wind Press
QNH
hPa
Press
MSL
hPa
Rain
since 9 am
mm
Dir
 
Spd
km/h
Gust
km/h
Spd
kts
Gust
kts
21/11:30pm - - - - - WSW 37 44 20 24 1011.6 - -
21/11:00pm - - - - - WSW 33 39 18 21 1012.3 1012.1 -
21/10:30pm - - - - - WSW 32 35 17 19 1013.1 - -
21/10:00pm - - - - - WSW 32 35 17 19 1013.7 1013.6 -
21/09:30pm - - - - - WSW 30 33 16 18 1014.1 - -

Other Formats:

Comma delimited format used in spreadsheet applications
http://www.bom.gov.au/fwo/IDW60801/IDW60801.94207.axf

JavaScript Object Notation format (JSON) in row-major order
http://www.bom.gov.au/fwo/IDW60801/IDW60801.94207.json